Pine Grove Furnace, Pennsylvania
Current Conditions -  °F | °C
As of 10:53 PM on Monday 20 Oct 2014 (Local Time) from KTHV Reporting Station
Overcast Overcast  
Wind Chill: 55°   Ceiling: 8500
Heat Index: 55°   Visibility: 10mi
Dew Point: 49°   Wind: 6mph
Humidity: 80%   Direction: 190°S
Pressure: 29.93"   Gusts: NA
Location:  40.0362°N, 77.1908°W
Report Text: KTHV 210253Z AUTO 19005KT 10SM OVC085 13/09 A2993 RMK AO2 RAB0156E25 SLP138 P0000 60000 T01280094 58004
Loading
Personal Weather Stations






























Interactive Weather Map
Tropical Storm Tracking
New forecast layout! Learn more

10-Day Weather Forecast

Advertisements
Track Severe Weather on mobile